createdAt,value
2018-08-25T00:01:47.614Z,22.23
2018-08-25T00:04:15.518Z,22.22
2018-08-25T00:06:43.796Z,22.21
2018-08-25T00:09:12.271Z,22.21
2018-08-25T00:11:40.497Z,22.21
2018-08-25T00:14:08.701Z,22.22
2018-08-25T00:16:37.042Z,22.19
2018-08-25T00:19:04.778Z,22.20
2018-08-25T00:21:32.403Z,22.18
2018-08-25T00:24:00.050Z,22.16
2018-08-25T00:26:28.325Z,22.15
2018-08-25T00:28:55.947Z,22.15
2018-08-25T00:31:24.641Z,22.14
2018-08-25T00:33:54.250Z,22.14
2018-08-25T00:36:22.683Z,22.12
2018-08-25T00:38:50.483Z,22.12
2018-08-25T00:41:18.114Z,22.11
2018-08-25T00:43:46.130Z,22.11
2018-08-25T00:46:14.098Z,22.10
2018-08-25T00:48:42.115Z,22.09
2018-08-25T00:51:09.775Z,22.11
2018-08-25T00:53:37.449Z,22.09
2018-08-25T00:56:05.661Z,22.08
2018-08-25T00:58:33.565Z,22.09
2018-08-25T01:01:01.742Z,22.07
2018-08-25T01:03:29.932Z,22.06
2018-08-25T01:05:57.549Z,22.08
2018-08-25T01:08:25.650Z,22.06
2018-08-25T01:10:53.600Z,22.01
2018-08-25T01:13:21.546Z,22.06
2018-08-25T01:15:49.848Z,22.05
2018-08-25T01:18:17.776Z,22.04
2018-08-25T01:20:46.750Z,22.03
2018-08-25T01:23:14.400Z,22.01
2018-08-25T01:25:42.753Z,22.02
2018-08-25T01:28:10.938Z,22.02
2018-08-25T01:30:39.246Z,22.00
2018-08-25T01:33:07.147Z,21.99
2018-08-25T01:35:34.979Z,21.99
2018-08-25T01:38:03.267Z,21.98
2018-08-25T01:40:30.915Z,21.98
2018-08-25T01:42:59.302Z,21.97
2018-08-25T01:45:26.952Z,21.95
2018-08-25T01:47:54.965Z,21.95
2018-08-25T01:50:23.317Z,21.94
2018-08-25T01:52:50.969Z,21.95
2018-08-25T01:55:18.673Z,21.94
2018-08-25T01:57:46.605Z,21.94
2018-08-25T02:00:14.286Z,21.92
2018-08-25T02:02:42.316Z,21.91
2018-08-25T02:05:09.927Z,21.91
2018-08-25T02:07:37.580Z,21.90
2018-08-25T02:10:05.327Z,21.88
2018-08-25T02:12:33.324Z,21.89
2018-08-25T02:15:00.986Z,21.88
2018-08-25T02:17:29.187Z,21.88
2018-08-25T02:19:57.925Z,21.89
2018-08-25T02:22:25.605Z,21.87
2018-08-25T02:24:53.812Z,21.85
2018-08-25T02:27:21.879Z,21.86
2018-08-25T02:29:49.818Z,21.87
2018-08-25T02:32:18.057Z,21.86
2018-08-25T02:34:46.001Z,21.87
2018-08-25T02:37:13.650Z,21.85
2018-08-25T02:39:41.345Z,21.84
2018-08-25T02:42:09.057Z,21.84
2018-08-25T02:44:37.494Z,21.83
2018-08-25T02:47:05.200Z,21.80
2018-08-25T02:49:32.974Z,21.80
2018-08-25T02:52:00.614Z,21.82
2018-08-25T02:54:28.730Z,21.80
2018-08-25T02:56:56.360Z,21.82
2018-08-25T02:59:24.330Z,21.79
2018-08-25T03:01:51.984Z,21.79
2018-08-25T03:04:19.581Z,21.77
2018-08-25T03:06:47.660Z,21.78
2018-08-25T03:09:15.330Z,21.78
2018-08-25T03:12:46.322Z,21.78
2018-08-25T03:15:13.989Z,21.78
2018-08-25T03:17:41.679Z,21.76
2018-08-25T03:20:09.760Z,21.75
2018-08-25T03:22:37.485Z,21.76
2018-08-25T03:25:05.146Z,21.74
2018-08-25T03:27:32.822Z,21.74
2018-08-25T03:30:00.877Z,21.74
2018-08-25T03:32:28.893Z,21.75
2018-08-25T03:34:56.832Z,21.74
2018-08-25T03:37:24.491Z,21.73
2018-08-25T03:39:52.181Z,21.72
2018-08-25T03:42:19.816Z,21.72
2018-08-25T03:44:48.155Z,21.73
2018-08-25T03:47:16.051Z,21.71
2018-08-25T03:49:44.021Z,21.72
2018-08-25T03:52:12.536Z,21.72
2018-08-25T03:54:40.129Z,21.73
2018-08-25T03:57:07.768Z,21.72
2018-08-25T03:59:35.801Z,21.73
2018-08-25T04:02:03.462Z,21.73
2018-08-25T04:04:31.544Z,21.75
2018-08-25T04:06:59.498Z,21.74
2018-08-25T04:09:27.472Z,21.74
2018-08-25T04:11:56.004Z,21.73
2018-08-25T04:14:23.932Z,21.73
2018-08-25T04:16:51.592Z,21.74
2018-08-25T04:19:20.455Z,21.74
2018-08-25T04:21:48.588Z,21.73
2018-08-25T04:24:16.626Z,21.73
2018-08-25T04:26:44.274Z,21.73
2018-08-25T04:29:12.773Z,21.72
2018-08-25T04:31:40.745Z,21.72
2018-08-25T04:34:08.685Z,21.73
2018-08-25T04:36:36.326Z,21.74
2018-08-25T04:39:06.495Z,21.74
2018-08-25T04:41:34.226Z,21.75
2018-08-25T04:44:02.308Z,21.75
2018-08-25T04:46:30.212Z,21.76
2018-08-25T04:48:58.180Z,21.75
2018-08-25T04:51:26.013Z,21.75
2018-08-25T04:53:54.076Z,21.77
2018-08-25T04:56:21.755Z,21.77
2018-08-25T04:58:49.365Z,21.78
2018-08-25T05:01:17.370Z,21.80
2018-08-25T05:03:45.107Z,21.83
2018-08-25T05:06:12.765Z,21.86
2018-08-25T05:08:40.560Z,21.86
2018-08-25T05:11:08.770Z,21.83
2018-08-25T05:13:36.799Z,21.84
2018-08-25T05:16:04.440Z,21.84
2018-08-25T05:18:32.114Z,21.83
2018-08-25T05:21:00.299Z,21.82
2018-08-25T05:23:27.927Z,21.83
2018-08-25T05:25:55.960Z,21.84
2018-08-25T05:28:23.597Z,21.84
2018-08-25T05:30:51.653Z,21.83
2018-08-25T05:33:19.570Z,21.83
2018-08-25T05:35:47.505Z,21.85
2018-08-25T05:38:15.513Z,21.85
2018-08-25T05:40:43.437Z,21.86
2018-08-25T05:43:11.148Z,21.86
2018-08-25T05:45:39.093Z,21.87
2018-08-25T05:48:06.755Z,21.91
2018-08-25T05:50:34.797Z,21.92
2018-08-25T05:53:02.782Z,21.93
2018-08-25T05:55:30.769Z,21.95
2018-08-25T05:57:58.424Z,21.94
2018-08-25T06:00:26.165Z,21.95
2018-08-25T06:02:54.184Z,21.96
2018-08-25T06:05:22.192Z,21.99
2018-08-25T06:07:50.191Z,22.01
2018-08-25T06:10:19.007Z,22.05
2018-08-25T06:12:47.079Z,22.06
2018-08-25T06:15:14.734Z,22.09
2018-08-25T06:17:42.779Z,22.12
2018-08-25T06:20:10.432Z,22.13
2018-08-25T06:22:38.402Z,22.14
2018-08-25T06:25:06.810Z,22.15
2018-08-25T06:27:34.962Z,22.13
2018-08-25T06:30:02.933Z,22.12
2018-08-25T06:32:31.245Z,22.13
2018-08-25T06:34:58.902Z,22.13
2018-08-25T06:37:27.032Z,22.13
2018-08-25T06:39:55.004Z,22.15
2018-08-25T06:42:22.672Z,22.17
2018-08-25T06:44:50.700Z,22.19
2018-08-25T06:47:19.010Z,22.17
2018-08-25T06:49:46.969Z,22.18
2018-08-25T06:52:14.657Z,22.17
2018-08-25T06:54:42.333Z,22.15
2018-08-25T06:57:10.626Z,22.14
2018-08-25T06:59:38.759Z,22.15
2018-08-25T07:02:06.728Z,22.14
2018-08-25T07:04:34.713Z,22.12
2018-08-25T07:07:03.068Z,22.11
2018-08-25T07:09:31.041Z,22.09
2018-08-25T07:11:58.665Z,22.10
2018-08-25T07:14:26.334Z,22.09
2018-08-25T07:16:54.611Z,22.08
2018-08-25T07:19:22.254Z,22.08
2018-08-25T07:21:49.883Z,22.08
2018-08-25T07:24:18.205Z,22.08
2018-08-25T07:26:46.189Z,22.08
2018-08-25T07:29:14.408Z,22.07
2018-08-25T07:31:42.399Z,22.06
2018-08-25T07:34:10.026Z,22.05
2018-08-25T07:36:37.839Z,22.05
2018-08-25T07:39:08.097Z,22.10
2018-08-25T07:41:36.122Z,22.13
2018-08-25T07:44:03.821Z,22.15
2018-08-25T07:46:31.785Z,22.17
2018-08-25T07:48:59.999Z,22.17
2018-08-25T07:51:27.650Z,22.16
2018-08-25T07:53:55.322Z,22.16
2018-08-25T07:56:22.947Z,22.17
2018-08-25T07:58:50.576Z,22.19
2018-08-25T08:01:18.655Z,22.22
2018-08-25T08:03:46.609Z,22.24
2018-08-25T08:06:14.264Z,22.25
2018-08-25T08:08:42.342Z,22.26
2018-08-25T08:11:10.271Z,22.27
2018-08-25T08:13:37.893Z,22.29
2018-08-25T08:16:06.164Z,22.31
2018-08-25T08:18:34.065Z,22.31
2018-08-25T08:21:01.728Z,22.31
2018-08-25T08:23:29.694Z,22.34
2018-08-25T08:25:57.300Z,22.36
2018-08-25T08:28:24.905Z,22.39
2018-08-25T08:30:52.842Z,22.41
2018-08-25T08:33:20.864Z,22.45
2018-08-25T08:35:49.071Z,22.48
2018-08-25T08:38:17.173Z,22.51
2018-08-25T08:40:44.945Z,22.51
2018-08-25T08:43:12.597Z,22.49
2018-08-25T08:45:40.303Z,22.44
2018-08-25T08:48:08.342Z,22.42
2018-08-25T08:50:36.405Z,22.43
2018-08-25T08:53:04.049Z,22.44
2018-08-25T08:55:32.095Z,22.43
2018-08-25T08:58:00.041Z,22.43
2018-08-25T09:00:28.016Z,22.41
2018-08-25T09:02:56.123Z,22.39
2018-08-25T09:05:24.123Z,22.38
2018-08-25T09:07:51.777Z,22.37
2018-08-25T09:10:19.688Z,22.37
2018-08-25T09:12:47.601Z,22.36
2018-08-25T09:15:15.921Z,22.36
2018-08-25T09:17:43.645Z,22.34
2018-08-25T09:20:11.600Z,22.31
2018-08-25T09:22:39.234Z,22.29
2018-08-25T09:25:06.853Z,22.29
2018-08-25T09:27:34.556Z,22.29
2018-08-25T09:30:02.573Z,22.31
2018-08-25T09:32:30.502Z,22.32
2018-08-25T09:34:58.216Z,22.31
2018-08-25T09:37:26.123Z,22.31
2018-08-25T09:39:53.737Z,22.32
2018-08-25T09:42:22.150Z,22.30
2018-08-25T09:44:49.818Z,22.30
2018-08-25T09:47:17.712Z,22.30
2018-08-25T09:49:45.372Z,22.29
2018-08-25T09:52:13.903Z,22.29
2018-08-25T09:54:43.863Z,22.29
2018-08-25T09:57:11.526Z,22.29
2018-08-25T09:59:39.494Z,22.28
2018-08-25T10:02:07.643Z,22.27
2018-08-25T10:04:35.369Z,22.29
2018-08-25T10:07:03.173Z,22.29
2018-08-25T10:09:31.141Z,22.30
2018-08-25T10:11:59.334Z,22.28
2018-08-25T10:14:26.995Z,22.28
2018-08-25T10:16:55.595Z,22.29
2018-08-25T10:19:23.535Z,22.26
2018-08-25T10:21:51.646Z,22.25
2018-08-25T10:24:19.606Z,22.24
2018-08-25T10:26:47.244Z,22.24
2018-08-25T10:29:15.251Z,22.23
2018-08-25T10:31:42.953Z,22.23
2018-08-25T10:34:10.831Z,22.21
2018-08-25T10:36:38.500Z,22.21
2018-08-25T10:39:09.333Z,22.20
2018-08-25T10:41:37.373Z,22.21
2018-08-25T10:44:05.892Z,22.21
2018-08-25T10:46:34.092Z,22.25
2018-08-25T10:49:01.754Z,22.25
2018-08-25T10:51:30.076Z,22.26
2018-08-25T10:53:58.352Z,22.27
2018-08-25T10:56:25.931Z,22.29
2018-08-25T10:58:54.198Z,22.30
2018-08-25T11:01:21.849Z,22.33
2018-08-25T11:03:49.538Z,22.33
2018-08-25T11:06:17.329Z,22.33
2018-08-25T11:08:45.343Z,22.32
2018-08-25T11:11:12.979Z,22.32
2018-08-25T11:13:40.687Z,22.32
2018-08-25T11:16:08.352Z,22.32
2018-08-25T11:18:36.626Z,22.33
2018-08-25T11:21:04.369Z,22.32
2018-08-25T11:23:33.596Z,22.33
2018-08-25T11:26:01.225Z,22.33
2018-08-25T11:28:29.213Z,22.31
2018-08-25T11:30:57.542Z,22.30
2018-08-25T11:33:25.665Z,22.29
2018-08-25T11:35:53.546Z,22.30
2018-08-25T11:38:21.912Z,22.29
2018-08-25T11:40:49.836Z,22.30
2018-08-25T11:43:17.745Z,22.30
2018-08-25T11:45:46.064Z,22.30
2018-08-25T11:48:13.997Z,22.28
2018-08-25T11:50:41.962Z,22.26
2018-08-25T11:53:09.969Z,22.24
2018-08-25T11:55:37.974Z,22.22
2018-08-25T11:58:05.609Z,22.21
2018-08-25T12:00:33.930Z,22.21
2018-08-25T12:03:03.833Z,22.23
2018-08-25T12:05:30.602Z,22.28
2018-08-25T12:07:58.990Z,22.34
2018-08-25T12:10:26.705Z,22.39
2018-08-25T12:12:54.742Z,22.42
2018-08-25T12:15:22.377Z,22.44
2018-08-25T12:17:50.338Z,22.46
2018-08-25T12:20:18.003Z,22.48
2018-08-25T12:22:45.642Z,22.48
2018-08-25T12:25:13.282Z,22.48
2018-08-25T12:27:40.949Z,22.47
2018-08-25T12:30:08.707Z,22.44
2018-08-25T12:32:36.760Z,22.42
2018-08-25T12:35:04.833Z,22.39
2018-08-25T12:37:32.453Z,22.38
2018-08-25T12:40:00.278Z,22.36
2018-08-25T12:42:27.920Z,22.33
2018-08-25T12:44:55.598Z,22.31
2018-08-25T12:47:25.333Z,22.28
2018-08-25T12:49:54.449Z,22.26
2018-08-25T12:52:22.089Z,22.28
2018-08-25T12:54:49.730Z,22.31
2018-08-25T12:57:18.506Z,22.31
2018-08-25T12:59:46.501Z,22.34
2018-08-25T13:02:14.127Z,22.35
2018-08-25T13:04:42.682Z,22.36
2018-08-25T13:07:11.070Z,22.39
2018-08-25T13:09:38.985Z,22.42
2018-08-25T13:12:06.696Z,22.43
2018-08-25T13:14:34.343Z,22.46
2018-08-25T13:17:02.102Z,22.47
2018-08-25T13:19:30.701Z,22.42
2018-08-25T13:21:58.754Z,22.37
2018-08-25T13:24:26.705Z,22.33
2018-08-25T13:26:54.660Z,22.29
2018-08-25T13:29:22.302Z,22.22
2018-08-25T13:31:50.222Z,22.18
2018-08-25T13:34:18.229Z,22.14
2018-08-25T13:36:45.831Z,22.10
2018-08-25T13:39:13.509Z,22.07
2018-08-25T13:41:42.061Z,22.08
2018-08-25T13:44:16.559Z,22.09
2018-08-25T13:46:44.150Z,22.10
2018-08-25T13:49:12.478Z,22.15
2018-08-25T13:51:40.211Z,22.22
2018-08-25T13:54:08.574Z,22.30
2018-08-25T13:56:36.504Z,22.44
2018-08-25T13:59:04.478Z,22.61
2018-08-25T14:01:32.122Z,22.71
2018-08-25T14:04:00.278Z,22.80
2018-08-25T14:06:27.981Z,22.85
2018-08-25T14:08:55.969Z,22.89
2018-08-25T14:11:23.602Z,22.89
2018-08-25T14:13:51.470Z,22.97
2018-08-25T14:16:19.194Z,23.15
2018-08-25T14:18:46.798Z,23.69
2018-08-25T14:21:14.731Z,24.76
2018-08-25T14:23:42.630Z,24.65
2018-08-25T14:26:11.139Z,24.01
2018-08-25T14:28:38.741Z,24.13
2018-08-25T14:31:06.635Z,24.61
2018-08-25T14:33:34.646Z,24.86
2018-08-25T14:36:02.549Z,25.25
2018-08-25T14:38:30.774Z,25.18
2018-08-25T14:40:58.691Z,24.39
2018-08-25T14:43:26.368Z,24.53
2018-08-25T14:45:54.018Z,24.48
2018-08-25T14:48:21.653Z,23.82
2018-08-25T14:50:49.636Z,23.37
2018-08-25T14:53:17.548Z,23.15
2018-08-25T14:55:45.553Z,23.01
2018-08-25T14:58:13.823Z,22.94
2018-08-25T15:00:41.506Z,22.89
2018-08-25T15:03:09.696Z,22.85
2018-08-25T15:05:37.386Z,22.82
2018-08-25T15:08:05.054Z,22.81
2018-08-25T15:10:33.213Z,22.81
2018-08-25T15:13:01.184Z,22.84
2018-08-25T15:15:29.066Z,22.94
2018-08-25T15:17:57.922Z,23.55
2018-08-25T15:20:25.885Z,23.75
2018-08-25T15:22:53.621Z,25.38
2018-08-25T15:25:21.549Z,26.11
2018-08-25T15:27:49.533Z,26.04
2018-08-25T15:30:17.579Z,26.74
2018-08-25T15:32:45.182Z,27.46
2018-08-25T15:35:12.790Z,26.40
2018-08-25T15:37:40.750Z,25.85
2018-08-25T15:40:08.363Z,25.09
2018-08-25T15:42:36.535Z,24.57
2018-08-25T15:45:04.464Z,25.05
2018-08-25T15:47:32.120Z,24.78
2018-08-25T15:50:00.074Z,24.64
2018-08-25T15:52:27.798Z,24.49
2018-08-25T15:54:55.942Z,24.18
2018-08-25T15:57:23.593Z,24.02
2018-08-25T15:59:51.313Z,23.91
2018-08-25T16:02:18.962Z,23.83
2018-08-25T16:04:46.610Z,23.76
2018-08-25T16:07:14.537Z,23.66
2018-08-25T16:09:43.392Z,23.59
2018-08-25T16:12:11.169Z,23.55
2018-08-25T16:14:39.270Z,23.51
2018-08-25T16:17:06.905Z,23.47
2018-08-25T16:19:34.843Z,23.43
2018-08-25T16:22:03.198Z,23.42
2018-08-25T16:24:31.100Z,23.48
2018-08-25T16:26:58.733Z,23.48
2018-08-25T16:29:26.629Z,23.38
2018-08-25T16:31:54.280Z,23.32
2018-08-25T16:34:22.274Z,23.25
2018-08-25T16:36:50.157Z,23.20
2018-08-25T16:39:18.410Z,23.15
2018-08-25T16:41:46.111Z,23.15
2018-08-25T16:44:13.720Z,23.13
2018-08-25T16:46:41.457Z,23.12
2018-08-25T16:49:09.197Z,23.10
2018-08-25T16:51:37.357Z,23.05
2018-08-25T16:54:05.368Z,23.02
2018-08-25T16:56:33.295Z,22.99
2018-08-25T16:59:01.269Z,22.93
2018-08-25T17:01:29.254Z,22.89
2018-08-25T17:03:57.221Z,22.85
2018-08-25T17:06:25.184Z,22.82
2018-08-25T17:08:52.853Z,22.78
2018-08-25T17:11:20.826Z,22.75
2018-08-25T17:13:48.486Z,22.73
2018-08-25T17:16:16.753Z,22.70
2018-08-25T17:18:44.751Z,22.69
2018-08-25T17:21:12.487Z,22.65
2018-08-25T17:23:40.147Z,22.64
2018-08-25T17:26:07.814Z,22.60
2018-08-25T17:28:35.858Z,22.57
2018-08-25T17:31:03.839Z,22.56
2018-08-25T17:33:31.484Z,22.54
2018-08-25T17:35:59.203Z,22.52
2018-08-25T17:38:26.837Z,22.52
2018-08-25T17:40:54.541Z,22.48
2018-08-25T17:43:22.234Z,22.45
2018-08-25T17:45:49.905Z,22.42
2018-08-25T17:48:17.911Z,22.38
2018-08-25T17:50:45.569Z,22.34
2018-08-25T17:53:13.484Z,22.32
2018-08-25T17:55:41.517Z,22.29
2018-08-25T17:58:09.435Z,22.26
2018-08-25T18:00:37.105Z,22.24
2018-08-25T18:03:05.100Z,22.22
2018-08-25T18:05:33.181Z,22.20
2018-08-25T18:08:01.333Z,22.18
2018-08-25T18:10:28.988Z,22.16
2018-08-25T18:12:57.008Z,22.14
2018-08-25T18:15:24.964Z,22.11
2018-08-25T18:17:52.627Z,22.11
2018-08-25T18:20:20.969Z,22.10
2018-08-25T18:22:48.616Z,22.07
2018-08-25T18:25:16.257Z,22.06
2018-08-25T18:27:44.159Z,22.04
2018-08-25T18:30:11.896Z,22.03
2018-08-25T18:32:40.587Z,22.01
2018-08-25T18:35:08.274Z,22.00
2018-08-25T18:37:36.188Z,21.98
2018-08-25T18:40:03.897Z,21.97
2018-08-25T18:42:32.090Z,21.95
2018-08-25T18:45:00.085Z,21.96
2018-08-25T18:47:28.079Z,21.95
2018-08-25T18:49:55.895Z,21.93
2018-08-25T18:52:23.875Z,21.91
2018-08-25T18:54:51.594Z,21.91
2018-08-25T18:57:19.761Z,21.89
2018-08-25T18:59:47.421Z,21.87
2018-08-25T19:02:15.200Z,21.85
2018-08-25T19:04:42.806Z,21.84
2018-08-25T19:07:10.842Z,21.84
2018-08-25T19:09:38.570Z,21.82
2018-08-25T19:12:07.096Z,21.80
2018-08-25T19:14:35.010Z,21.79
2018-08-25T19:17:02.933Z,21.77
2018-08-25T19:19:30.868Z,21.76
2018-08-25T19:21:58.573Z,21.75
2018-08-25T19:24:26.934Z,21.73
2018-08-25T19:26:54.797Z,21.73
2018-08-25T19:29:22.741Z,21.71
2018-08-25T19:31:50.417Z,21.71
2018-08-25T19:34:18.319Z,21.69
2018-08-25T19:36:45.984Z,21.68
2018-08-25T19:39:14.232Z,21.67
2018-08-25T19:41:42.066Z,21.66
2018-08-25T19:44:10.275Z,21.65
2018-08-25T19:46:38.157Z,21.65
2018-08-25T19:49:06.105Z,21.63
2018-08-25T19:51:33.786Z,21.62
2018-08-25T19:54:01.719Z,21.61
2018-08-25T19:56:29.644Z,21.59
2018-08-25T19:58:57.339Z,21.58
2018-08-25T20:01:25.285Z,21.57
2018-08-25T20:03:52.960Z,21.56
2018-08-25T20:06:20.889Z,21.56
2018-08-25T20:08:48.534Z,21.55
2018-08-25T20:11:16.185Z,21.54
2018-08-25T20:13:44.227Z,21.53
2018-08-25T20:16:12.174Z,21.52
2018-08-25T20:18:39.785Z,21.52
2018-08-25T20:21:07.550Z,21.51
2018-08-25T20:23:35.413Z,21.49
2018-08-25T20:26:03.600Z,21.47
2018-08-25T20:28:31.465Z,21.46
2018-08-25T20:30:59.109Z,21.46
2018-08-25T20:33:27.008Z,21.45
2018-08-25T20:35:55.339Z,21.45
2018-08-25T20:38:23.441Z,21.44
2018-08-25T20:40:51.615Z,21.43
2018-08-25T20:43:19.287Z,21.43
2018-08-25T20:45:47.301Z,21.41
2018-08-25T20:48:15.184Z,21.40
2018-08-25T20:50:43.020Z,21.39
2018-08-25T20:53:10.622Z,21.40
2018-08-25T20:55:38.913Z,21.39
2018-08-25T20:58:06.583Z,21.37
2018-08-25T21:00:34.215Z,21.38
2018-08-25T21:03:01.919Z,21.37
2018-08-25T21:05:29.605Z,21.36
2018-08-25T21:07:57.309Z,21.37
2018-08-25T21:10:24.986Z,21.36
2018-08-25T21:12:52.941Z,21.36
2018-08-25T21:15:20.620Z,21.34
2018-08-25T21:17:49.146Z,21.32
2018-08-25T21:20:17.610Z,21.32
2018-08-25T21:22:45.289Z,21.31
2018-08-25T21:25:13.117Z,21.32
2018-08-25T21:27:41.340Z,21.31
2018-08-25T21:30:09.750Z,21.30
2018-08-25T21:32:37.467Z,21.29
2018-08-25T21:35:06.434Z,21.28
2018-08-25T21:37:34.164Z,21.27
2018-08-25T21:40:02.069Z,21.26
2018-08-25T21:42:30.081Z,21.25
2018-08-25T21:44:58.390Z,21.26
2018-08-25T21:47:26.138Z,21.24
2018-08-25T21:49:54.032Z,21.22
2018-08-25T21:52:21.973Z,21.21
2018-08-25T21:54:49.964Z,21.21
2018-08-25T21:57:17.630Z,21.21
2018-08-25T21:59:45.245Z,21.20
2018-08-25T22:02:17.562Z,21.20
2018-08-25T22:04:45.726Z,21.18
2018-08-25T22:07:13.603Z,21.18
2018-08-25T22:09:42.250Z,21.18
2018-08-25T22:12:09.869Z,21.18
2018-08-25T22:14:37.673Z,21.19
2018-08-25T22:17:06.620Z,21.16
2018-08-25T22:19:34.513Z,21.15
2018-08-25T22:22:02.636Z,21.14
2018-08-25T22:24:30.454Z,21.13
2018-08-25T22:26:58.583Z,21.13
2018-08-25T22:29:26.496Z,21.12
2018-08-25T22:31:54.129Z,21.11
2018-08-25T22:34:21.785Z,21.10
2018-08-25T22:36:49.529Z,21.10
2018-08-25T22:39:17.496Z,21.09
2018-08-25T22:41:45.408Z,21.08
2018-08-25T22:44:13.568Z,21.06
2018-08-25T22:46:41.748Z,21.06
2018-08-25T22:49:09.451Z,21.04
2018-08-25T22:51:37.662Z,21.04
2018-08-25T22:54:05.358Z,21.03
2018-08-25T22:56:33.325Z,21.02
2018-08-25T22:59:00.969Z,21.01
2018-08-25T23:01:28.631Z,20.99
2018-08-25T23:03:56.255Z,21.00
2018-08-25T23:06:23.877Z,21.00
2018-08-25T23:08:51.822Z,20.97
2018-08-25T23:11:19.494Z,20.99
2018-08-25T23:13:47.457Z,20.99
2018-08-25T23:16:15.125Z,20.98
2018-08-25T23:18:43.048Z,20.96
2018-08-25T23:21:10.776Z,20.97
2018-08-25T23:23:38.393Z,20.95
2018-08-25T23:26:06.249Z,20.93
2018-08-25T23:28:33.901Z,20.94
2018-08-25T23:31:01.777Z,20.93
2018-08-25T23:33:29.796Z,20.92
2018-08-25T23:35:57.443Z,20.92
2018-08-25T23:38:25.073Z,20.91
2018-08-25T23:40:52.710Z,20.90
2018-08-25T23:43:20.703Z,20.91
2018-08-25T23:45:48.369Z,20.89
2018-08-25T23:48:16.271Z,20.89
2018-08-25T23:50:44.513Z,20.88
2018-08-25T23:53:12.395Z,20.87
2018-08-25T23:55:40.222Z,20.87
2018-08-25T23:58:08.300Z,20.86
